sensor_id;sensor_type;location;lat;lon;timestamp;P1;durP1;ratioP1;P2;durP2;ratioP2
30233;SDS011;17046;52.074;4.748;2022-08-23T00:00:32;13.15;;;7.22;;
30233;SDS011;17046;52.074;4.748;2022-08-23T00:02:58;13.30;;;6.47;;
30233;SDS011;17046;52.074;4.748;2022-08-23T00:05:24;11.90;;;6.60;;
30233;SDS011;17046;52.074;4.748;2022-08-23T00:07:50;13.40;;;6.20;;
30233;SDS011;17046;52.074;4.748;2022-08-23T00:10:16;14.75;;;7.60;;
30233;SDS011;17046;52.074;4.748;2022-08-23T00:12:43;11.48;;;6.75;;
30233;SDS011;17046;52.074;4.748;2022-08-23T00:15:11;9.98;;;6.72;;
30233;SDS011;17046;52.074;4.748;2022-08-23T00:17:38;12.98;;;7.45;;
30233;SDS011;17046;52.074;4.748;2022-08-23T00:20:06;12.70;;;7.30;;
30233;SDS011;17046;52.074;4.748;2022-08-23T00:22:34;10.10;;;6.38;;
30233;SDS011;17046;52.074;4.748;2022-08-23T00:25:01;10.52;;;6.80;;
30233;SDS011;17046;52.074;4.748;2022-08-23T00:27:28;15.48;;;7.25;;
30233;SDS011;17046;52.074;4.748;2022-08-23T00:29:54;13.18;;;6.90;;
30233;SDS011;17046;52.074;4.748;2022-08-23T00:32:22;11.57;;;6.82;;
30233;SDS011;17046;52.074;4.748;2022-08-23T00:34:49;11.20;;;6.65;;
30233;SDS011;17046;52.074;4.748;2022-08-23T00:37:15;9.88;;;6.68;;
30233;SDS011;17046;52.074;4.748;2022-08-23T00:39:41;11.65;;;6.40;;
30233;SDS011;17046;52.074;4.748;2022-08-23T00:42:10;11.88;;;7.35;;
30233;SDS011;17046;52.074;4.748;2022-08-23T00:44:58;11.75;;;7.60;;
30233;SDS011;17046;52.074;4.748;2022-08-23T00:47:45;13.85;;;7.53;;
30233;SDS011;17046;52.074;4.748;2022-08-23T00:50:20;14.48;;;8.95;;
30233;SDS011;17046;52.074;4.748;2022-08-23T00:55:35;11.93;;;7.60;;
30233;SDS011;17046;52.074;4.748;2022-08-23T00:58:03;13.73;;;8.20;;
30233;SDS011;17046;52.074;4.748;2022-08-23T01:00:28;16.35;;;8.32;;
30233;SDS011;17046;52.074;4.748;2022-08-23T01:02:55;14.00;;;8.63;;
30233;SDS011;17046;52.074;4.748;2022-08-23T01:05:22;14.13;;;7.82;;
30233;SDS011;17046;52.074;4.748;2022-08-23T01:07:53;12.63;;;8.80;;
30233;SDS011;17046;52.074;4.748;2022-08-23T01:10:31;10.35;;;8.48;;
30233;SDS011;17046;52.074;4.748;2022-08-23T01:13:11;13.23;;;8.50;;
30233;SDS011;17046;52.074;4.748;2022-08-23T01:15:40;14.98;;;8.45;;
30233;SDS011;17046;52.074;4.748;2022-08-23T01:18:10;15.18;;;8.63;;
30233;SDS011;17046;52.074;4.748;2022-08-23T01:23:49;13.15;;;8.43;;
30233;SDS011;17046;52.074;4.748;2022-08-23T01:26:20;11.15;;;8.18;;
30233;SDS011;17046;52.074;4.748;2022-08-23T01:28:48;12.95;;;8.57;;
30233;SDS011;17046;52.074;4.748;2022-08-23T01:31:16;15.70;;;8.68;;
30233;SDS011;17046;52.074;4.748;2022-08-23T01:33:42;18.35;;;9.15;;
30233;SDS011;17046;52.074;4.748;2022-08-23T01:36:15;14.60;;;9.02;;
30233;SDS011;17046;52.074;4.748;2022-08-23T01:38:41;15.50;;;9.77;;
30233;SDS011;17046;52.074;4.748;2022-08-23T01:41:07;12.40;;;8.88;;
30233;SDS011;17046;52.074;4.748;2022-08-23T01:43:33;19.80;;;10.00;;
30233;SDS011;17046;52.074;4.748;2022-08-23T01:46:05;14.13;;;8.75;;
30233;SDS011;17046;52.074;4.748;2022-08-23T01:48:36;13.57;;;8.38;;
30233;SDS011;17046;52.074;4.748;2022-08-23T01:51:02;12.98;;;8.45;;
30233;SDS011;17046;52.074;4.748;2022-08-23T01:53:28;13.05;;;7.90;;
30233;SDS011;17046;52.074;4.748;2022-08-23T01:55:54;14.05;;;8.68;;
30233;SDS011;17046;52.074;4.748;2022-08-23T01:58:19;14.30;;;8.73;;
30233;SDS011;17046;52.074;4.748;2022-08-23T02:00:45;12.73;;;8.20;;
30233;SDS011;17046;52.074;4.748;2022-08-23T02:03:11;15.27;;;8.63;;
30233;SDS011;17046;52.074;4.748;2022-08-23T02:05:38;12.90;;;8.38;;
30233;SDS011;17046;52.074;4.748;2022-08-23T02:08:05;12.35;;;8.00;;
30233;SDS011;17046;52.074;4.748;2022-08-23T02:10:49;16.58;;;9.18;;
30233;SDS011;17046;52.074;4.748;2022-08-23T02:13:16;13.48;;;8.00;;
30233;SDS011;17046;52.074;4.748;2022-08-23T02:15:42;15.07;;;9.40;;
30233;SDS011;17046;52.074;4.748;2022-08-23T02:18:09;11.90;;;8.25;;
30233;SDS011;17046;52.074;4.748;2022-08-23T02:20:35;15.48;;;8.73;;
30233;SDS011;17046;52.074;4.748;2022-08-23T02:23:01;13.07;;;7.93;;
30233;SDS011;17046;52.074;4.748;2022-08-23T02:25:26;11.48;;;7.90;;
30233;SDS011;17046;52.074;4.748;2022-08-23T02:27:52;12.48;;;7.93;;
30233;SDS011;17046;52.074;4.748;2022-08-23T02:30:18;12.15;;;8.30;;
30233;SDS011;17046;52.074;4.748;2022-08-23T02:32:44;14.77;;;8.02;;
30233;SDS011;17046;52.074;4.748;2022-08-23T02:35:09;15.15;;;7.95;;
30233;SDS011;17046;52.074;4.748;2022-08-23T02:37:35;15.07;;;8.45;;
30233;SDS011;17046;52.074;4.748;2022-08-23T02:40:00;12.15;;;8.27;;
30233;SDS011;17046;52.074;4.748;2022-08-23T02:42:27;13.30;;;8.38;;
30233;SDS011;17046;52.074;4.748;2022-08-23T02:44:53;14.45;;;8.50;;
30233;SDS011;17046;52.074;4.748;2022-08-23T02:47:19;16.42;;;8.50;;
30233;SDS011;17046;52.074;4.748;2022-08-23T02:49:44;13.02;;;8.43;;
30233;SDS011;17046;52.074;4.748;2022-08-23T02:52:10;13.93;;;8.55;;
30233;SDS011;17046;52.074;4.748;2022-08-23T02:54:36;10.15;;;7.88;;
30233;SDS011;17046;52.074;4.748;2022-08-23T02:57:02;12.00;;;7.88;;
30233;SDS011;17046;52.074;4.748;2022-08-23T02:59:28;14.20;;;7.93;;
30233;SDS011;17046;52.074;4.748;2022-08-23T03:01:54;11.30;;;7.22;;
30233;SDS011;17046;52.074;4.748;2022-08-23T03:04:19;14.60;;;9.05;;
30233;SDS011;17046;52.074;4.748;2022-08-23T03:06:45;10.50;;;8.63;;
30233;SDS011;17046;52.074;4.748;2022-08-23T03:09:10;12.32;;;7.72;;
30233;SDS011;17046;52.074;4.748;2022-08-23T03:11:36;18.88;;;9.25;;
30233;SDS011;17046;52.074;4.748;2022-08-23T03:14:07;17.35;;;8.63;;
30233;SDS011;17046;52.074;4.748;2022-08-23T03:16:32;13.18;;;9.20;;
30233;SDS011;17046;52.074;4.748;2022-08-23T03:18:58;12.52;;;8.45;;
30233;SDS011;17046;52.074;4.748;2022-08-23T03:21:26;13.80;;;8.75;;
30233;SDS011;17046;52.074;4.748;2022-08-23T03:23:51;13.95;;;8.50;;
30233;SDS011;17046;52.074;4.748;2022-08-23T03:26:17;12.38;;;8.32;;
30233;SDS011;17046;52.074;4.748;2022-08-23T03:28:44;14.40;;;9.20;;
30233;SDS011;17046;52.074;4.748;2022-08-23T03:31:10;18.92;;;10.20;;
30233;SDS011;17046;52.074;4.748;2022-08-23T03:33:37;15.82;;;9.23;;
30233;SDS011;17046;52.074;4.748;2022-08-23T03:36:03;18.70;;;9.82;;
30233;SDS011;17046;52.074;4.748;2022-08-23T03:38:31;17.02;;;10.23;;
30233;SDS011;17046;52.074;4.748;2022-08-23T03:40:58;14.15;;;9.60;;
30233;SDS011;17046;52.074;4.748;2022-08-23T03:43:24;13.98;;;10.05;;
30233;SDS011;17046;52.074;4.748;2022-08-23T03:45:50;15.10;;;9.85;;
30233;SDS011;17046;52.074;4.748;2022-08-23T03:48:16;16.35;;;10.60;;
30233;SDS011;17046;52.074;4.748;2022-08-23T03:50:42;16.33;;;9.98;;
30233;SDS011;17046;52.074;4.748;2022-08-23T03:53:08;19.02;;;11.80;;
30233;SDS011;17046;52.074;4.748;2022-08-23T03:55:33;14.48;;;10.80;;
30233;SDS011;17046;52.074;4.748;2022-08-23T03:57:59;17.40;;;11.52;;
30233;SDS011;17046;52.074;4.748;2022-08-23T04:00:25;17.50;;;11.15;;
30233;SDS011;17046;52.074;4.748;2022-08-23T04:02:50;17.30;;;11.05;;
30233;SDS011;17046;52.074;4.748;2022-08-23T04:05:16;18.17;;;12.25;;
30233;SDS011;17046;52.074;4.748;2022-08-23T04:07:42;13.98;;;11.30;;
30233;SDS011;17046;52.074;4.748;2022-08-23T04:10:08;14.68;;;10.93;;
30233;SDS011;17046;52.074;4.748;2022-08-23T04:12:37;16.80;;;11.38;;
30233;SDS011;17046;52.074;4.748;2022-08-23T04:15:03;14.43;;;10.55;;
30233;SDS011;17046;52.074;4.748;2022-08-23T04:17:29;16.83;;;11.13;;
30233;SDS011;17046;52.074;4.748;2022-08-23T04:19:54;15.63;;;11.48;;
30233;SDS011;17046;52.074;4.748;2022-08-23T04:22:20;16.05;;;11.77;;
30233;SDS011;17046;52.074;4.748;2022-08-23T04:24:46;15.95;;;10.63;;
30233;SDS011;17046;52.074;4.748;2022-08-23T04:27:12;20.05;;;12.88;;
30233;SDS011;17046;52.074;4.748;2022-08-23T04:29:39;13.07;;;10.52;;
30233;SDS011;17046;52.074;4.748;2022-08-23T04:32:06;15.98;;;11.57;;
30233;SDS011;17046;52.074;4.748;2022-08-23T04:34:34;19.90;;;11.88;;
30233;SDS011;17046;52.074;4.748;2022-08-23T04:37:00;15.00;;;11.45;;
30233;SDS011;17046;52.074;4.748;2022-08-23T04:39:26;16.33;;;11.18;;
30233;SDS011;17046;52.074;4.748;2022-08-23T04:41:52;18.35;;;11.85;;
30233;SDS011;17046;52.074;4.748;2022-08-23T04:44:36;14.63;;;10.75;;
30233;SDS011;17046;52.074;4.748;2022-08-23T04:47:02;19.02;;;11.43;;
30233;SDS011;17046;52.074;4.748;2022-08-23T04:49:28;15.90;;;11.25;;
30233;SDS011;17046;52.074;4.748;2022-08-23T04:51:53;18.15;;;10.90;;
30233;SDS011;17046;52.074;4.748;2022-08-23T04:54:20;14.85;;;10.40;;
30233;SDS011;17046;52.074;4.748;2022-08-23T04:56:46;17.20;;;10.63;;
30233;SDS011;17046;52.074;4.748;2022-08-23T04:59:12;17.13;;;10.88;;
30233;SDS011;17046;52.074;4.748;2022-08-23T05:01:38;12.52;;;10.35;;
30233;SDS011;17046;52.074;4.748;2022-08-23T05:04:03;17.75;;;10.63;;
30233;SDS011;17046;52.074;4.748;2022-08-23T05:06:29;16.67;;;11.20;;
30233;SDS011;17046;52.074;4.748;2022-08-23T05:08:55;18.08;;;11.52;;
30233;SDS011;17046;52.074;4.748;2022-08-23T05:11:21;13.60;;;9.45;;
30233;SDS011;17046;52.074;4.748;2022-08-23T05:13:47;15.10;;;11.02;;
30233;SDS011;17046;52.074;4.748;2022-08-23T05:16:13;15.07;;;10.35;;
30233;SDS011;17046;52.074;4.748;2022-08-23T05:18:39;17.35;;;10.30;;
30233;SDS011;17046;52.074;4.748;2022-08-23T05:21:05;17.13;;;10.80;;
30233;SDS011;17046;52.074;4.748;2022-08-23T05:23:31;19.98;;;11.10;;
30233;SDS011;17046;52.074;4.748;2022-08-23T05:25:57;17.60;;;10.63;;
30233;SDS011;17046;52.074;4.748;2022-08-23T05:28:24;16.88;;;11.55;;
30233;SDS011;17046;52.074;4.748;2022-08-23T05:31:00;16.55;;;11.07;;
30233;SDS011;17046;52.074;4.748;2022-08-23T05:33:37;15.52;;;9.90;;
30233;SDS011;17046;52.074;4.748;2022-08-23T05:36:03;18.58;;;11.52;;
30233;SDS011;17046;52.074;4.748;2022-08-23T05:38:30;17.95;;;11.13;;
30233;SDS011;17046;52.074;4.748;2022-08-23T05:40:56;15.20;;;10.80;;
30233;SDS011;17046;52.074;4.748;2022-08-23T05:43:23;15.48;;;10.30;;
30233;SDS011;17046;52.074;4.748;2022-08-23T05:46:05;18.88;;;10.75;;
30233;SDS011;17046;52.074;4.748;2022-08-23T05:48:32;17.42;;;10.45;;
30233;SDS011;17046;52.074;4.748;2022-08-23T05:51:08;16.48;;;10.02;;
30233;SDS011;17046;52.074;4.748;2022-08-23T05:53:38;18.38;;;9.52;;
30233;SDS011;17046;52.074;4.748;2022-08-23T05:56:14;15.15;;;10.32;;
30233;SDS011;17046;52.074;4.748;2022-08-23T05:58:46;16.50;;;10.27;;
30233;SDS011;17046;52.074;4.748;2022-08-23T06:01:13;19.02;;;10.15;;
30233;SDS011;17046;52.074;4.748;2022-08-23T06:03:40;15.88;;;10.93;;
30233;SDS011;17046;52.074;4.748;2022-08-23T06:06:06;17.95;;;10.07;;
30233;SDS011;17046;52.074;4.748;2022-08-23T06:08:33;18.55;;;11.77;;
30233;SDS011;17046;52.074;4.748;2022-08-23T06:11:04;14.98;;;10.93;;
30233;SDS011;17046;52.074;4.748;2022-08-23T06:13:32;19.52;;;12.10;;
30233;SDS011;17046;52.074;4.748;2022-08-23T06:15:59;18.50;;;11.35;;
30233;SDS011;17046;52.074;4.748;2022-08-23T06:18:25;17.67;;;11.02;;
30233;SDS011;17046;52.074;4.748;2022-08-23T06:20:58;17.30;;;11.30;;
30233;SDS011;17046;52.074;4.748;2022-08-23T06:23:25;17.60;;;11.25;;
30233;SDS011;17046;52.074;4.748;2022-08-23T06:25:50;21.05;;;12.85;;
30233;SDS011;17046;52.074;4.748;2022-08-23T06:28:16;23.52;;;13.63;;
30233;SDS011;17046;52.074;4.748;2022-08-23T06:30:42;16.45;;;12.23;;
30233;SDS011;17046;52.074;4.748;2022-08-23T06:33:07;16.83;;;9.60;;
30233;SDS011;17046;52.074;4.748;2022-08-23T06:35:33;18.48;;;11.52;;
30233;SDS011;17046;52.074;4.748;2022-08-23T06:38:01;12.10;;;8.68;;
30233;SDS011;17046;52.074;4.748;2022-08-23T06:40:27;14.38;;;10.63;;
30233;SDS011;17046;52.074;4.748;2022-08-23T06:42:53;16.25;;;9.80;;
30233;SDS011;17046;52.074;4.748;2022-08-23T06:45:19;15.57;;;10.57;;
30233;SDS011;17046;52.074;4.748;2022-08-23T06:47:44;15.43;;;10.02;;
30233;SDS011;17046;52.074;4.748;2022-08-23T06:50:10;15.40;;;9.85;;
30233;SDS011;17046;52.074;4.748;2022-08-23T06:52:36;13.95;;;9.50;;
30233;SDS011;17046;52.074;4.748;2022-08-23T06:55:01;12.50;;;7.88;;
30233;SDS011;17046;52.074;4.748;2022-08-23T06:57:27;13.02;;;9.38;;
30233;SDS011;17046;52.074;4.748;2022-08-23T06:59:53;14.02;;;8.38;;
30233;SDS011;17046;52.074;4.748;2022-08-23T07:02:19;12.38;;;6.95;;
30233;SDS011;17046;52.074;4.748;2022-08-23T07:04:44;12.85;;;6.88;;
30233;SDS011;17046;52.074;4.748;2022-08-23T07:07:10;10.27;;;6.90;;
30233;SDS011;17046;52.074;4.748;2022-08-23T07:09:36;12.05;;;7.13;;
30233;SDS011;17046;52.074;4.748;2022-08-23T07:12:02;10.07;;;6.32;;
30233;SDS011;17046;52.074;4.748;2022-08-23T07:14:29;8.07;;;6.13;;
30233;SDS011;17046;52.074;4.748;2022-08-23T07:16:57;10.93;;;6.45;;
30233;SDS011;17046;52.074;4.748;2022-08-23T07:19:26;11.55;;;6.43;;
30233;SDS011;17046;52.074;4.748;2022-08-23T07:21:54;14.10;;;7.28;;
30233;SDS011;17046;52.074;4.748;2022-08-23T07:24:21;15.30;;;8.52;;
30233;SDS011;17046;52.074;4.748;2022-08-23T07:26:48;11.00;;;7.15;;
30233;SDS011;17046;52.074;4.748;2022-08-23T07:29:16;12.75;;;7.13;;
30233;SDS011;17046;52.074;4.748;2022-08-23T07:31:44;12.98;;;8.70;;
30233;SDS011;17046;52.074;4.748;2022-08-23T07:34:11;14.00;;;8.27;;
30233;SDS011;17046;52.074;4.748;2022-08-23T07:36:38;12.15;;;8.45;;
30233;SDS011;17046;52.074;4.748;2022-08-23T07:39:06;14.25;;;9.48;;
30233;SDS011;17046;52.074;4.748;2022-08-23T07:41:32;13.65;;;8.23;;
30233;SDS011;17046;52.074;4.748;2022-08-23T07:44:00;13.20;;;7.30;;
30233;SDS011;17046;52.074;4.748;2022-08-23T07:46:28;12.60;;;6.85;;
30233;SDS011;17046;52.074;4.748;2022-08-23T07:48:56;14.82;;;6.88;;
30233;SDS011;17046;52.074;4.748;2022-08-23T07:51:22;11.75;;;5.45;;
30233;SDS011;17046;52.074;4.748;2022-08-23T07:53:48;9.27;;;5.90;;
30233;SDS011;17046;52.074;4.748;2022-08-23T07:56:14;11.80;;;7.18;;
30233;SDS011;17046;52.074;4.748;2022-08-23T07:58:41;11.15;;;6.10;;
30233;SDS011;17046;52.074;4.748;2022-08-23T08:01:07;10.07;;;8.32;;
30233;SDS011;17046;52.074;4.748;2022-08-23T08:03:50;9.93;;;6.45;;
30233;SDS011;17046;52.074;4.748;2022-08-23T08:06:20;12.77;;;8.02;;
30233;SDS011;17046;52.074;4.748;2022-08-23T08:08:51;10.68;;;7.68;;
30233;SDS011;17046;52.074;4.748;2022-08-23T08:11:18;9.60;;;6.18;;
30233;SDS011;17046;52.074;4.748;2022-08-23T08:13:46;9.18;;;6.47;;
30233;SDS011;17046;52.074;4.748;2022-08-23T08:16:27;7.50;;;5.10;;
30233;SDS011;17046;52.074;4.748;2022-08-23T08:18:58;9.90;;;4.95;;
30233;SDS011;17046;52.074;4.748;2022-08-23T08:21:25;15.00;;;7.90;;
30233;SDS011;17046;52.074;4.748;2022-08-23T08:23:53;71.57;;;17.17;;
30233;SDS011;17046;52.074;4.748;2022-08-23T08:26:19;16.73;;;7.38;;
30233;SDS011;17046;52.074;4.748;2022-08-23T08:28:45;9.18;;;5.30;;
30233;SDS011;17046;52.074;4.748;2022-08-23T08:31:11;7.97;;;5.72;;
30233;SDS011;17046;52.074;4.748;2022-08-23T08:33:37;11.13;;;6.68;;
30233;SDS011;17046;52.074;4.748;2022-08-23T08:36:03;10.52;;;6.85;;
30233;SDS011;17046;52.074;4.748;2022-08-23T08:38:31;12.48;;;6.28;;
30233;SDS011;17046;52.074;4.748;2022-08-23T08:41:00;10.70;;;5.90;;
30233;SDS011;17046;52.074;4.748;2022-08-23T08:46:40;9.85;;;6.25;;
30233;SDS011;17046;52.074;4.748;2022-08-23T08:49:32;11.23;;;7.25;;
30233;SDS011;17046;52.074;4.748;2022-08-23T08:52:16;14.65;;;6.40;;
30233;SDS011;17046;52.074;4.748;2022-08-23T08:54:53;12.88;;;4.95;;
30233;SDS011;17046;52.074;4.748;2022-08-23T08:57:24;7.47;;;3.60;;
30233;SDS011;17046;52.074;4.748;2022-08-23T09:02:29;4.68;;;2.78;;
30233;SDS011;17046;52.074;4.748;2022-08-23T09:04:58;24.17;;;5.53;;
30233;SDS011;17046;52.074;4.748;2022-08-23T09:07:30;10.82;;;5.50;;
30233;SDS011;17046;52.074;4.748;2022-08-23T09:10:26;14.60;;;5.30;;
30233;SDS011;17046;52.074;4.748;2022-08-23T09:16:08;11.52;;;5.80;;
30233;SDS011;17046;52.074;4.748;2022-08-23T09:18:36;10.82;;;5.05;;
30233;SDS011;17046;52.074;4.748;2022-08-23T09:21:04;29.23;;;6.88;;
30233;SDS011;17046;52.074;4.748;2022-08-23T09:23:35;29.10;;;8.10;;
30233;SDS011;17046;52.074;4.748;2022-08-23T09:26:15;11.18;;;5.20;;
30233;SDS011;17046;52.074;4.748;2022-08-23T09:28:43;12.00;;;5.45;;
30233;SDS011;17046;52.074;4.748;2022-08-23T09:31:10;7.40;;;4.22;;
30233;SDS011;17046;52.074;4.748;2022-08-23T09:33:56;10.38;;;4.00;;
30233;SDS011;17046;52.074;4.748;2022-08-23T09:36:23;7.00;;;3.50;;
30233;SDS011;17046;52.074;4.748;2022-08-23T09:38:55;6.47;;;3.10;;
30233;SDS011;17046;52.074;4.748;2022-08-23T09:41:25;8.68;;;4.07;;
30233;SDS011;17046;52.074;4.748;2022-08-23T09:44:02;10.85;;;3.70;;
30233;SDS011;17046;52.074;4.748;2022-08-23T09:46:31;8.43;;;3.10;;
30233;SDS011;17046;52.074;4.748;2022-08-23T09:49:06;11.10;;;7.80;;
30233;SDS011;17046;52.074;4.748;2022-08-23T09:51:46;7.75;;;4.57;;
30233;SDS011;17046;52.074;4.748;2022-08-23T09:54:31;6.45;;;3.63;;
30233;SDS011;17046;52.074;4.748;2022-08-23T09:57:01;9.32;;;4.57;;
30233;SDS011;17046;52.074;4.748;2022-08-23T09:59:34;11.07;;;5.22;;
30233;SDS011;17046;52.074;4.748;2022-08-23T10:02:04;9.02;;;3.72;;
30233;SDS011;17046;52.074;4.748;2022-08-23T10:04:40;9.18;;;4.78;;
30233;SDS011;17046;52.074;4.748;2022-08-23T10:07:38;8.27;;;4.20;;
30233;SDS011;17046;52.074;4.748;2022-08-23T10:12:47;10.68;;;6.07;;
30233;SDS011;17046;52.074;4.748;2022-08-23T10:15:13;10.77;;;5.60;;
30233;SDS011;17046;52.074;4.748;2022-08-23T10:20:32;11.88;;;3.70;;
30233;SDS011;17046;52.074;4.748;2022-08-23T10:25:46;11.13;;;5.03;;
30233;SDS011;17046;52.074;4.748;2022-08-23T10:31:24;6.45;;;3.35;;
30233;SDS011;17046;52.074;4.748;2022-08-23T10:36:48;11.07;;;4.30;;
30233;SDS011;17046;52.074;4.748;2022-08-23T10:39:44;6.72;;;4.10;;
30233;SDS011;17046;52.074;4.748;2022-08-23T10:45:02;7.97;;;4.20;;
30233;SDS011;17046;52.074;4.748;2022-08-23T10:50:23;8.82;;;4.43;;
30233;SDS011;17046;52.074;4.748;2022-08-23T10:53:04;7.13;;;4.00;;
30233;SDS011;17046;52.074;4.748;2022-08-23T10:55:39;5.43;;;3.10;;
30233;SDS011;17046;52.074;4.748;2022-08-23T10:58:20;6.25;;;2.72;;
30233;SDS011;17046;52.074;4.748;2022-08-23T11:00:49;6.75;;;3.05;;
30233;SDS011;17046;52.074;4.748;2022-08-23T11:03:25;10.10;;;3.90;;
30233;SDS011;17046;52.074;4.748;2022-08-23T11:08:55;10.57;;;3.08;;
30233;SDS011;17046;52.074;4.748;2022-08-23T11:11:37;7.90;;;3.03;;
30233;SDS011;17046;52.074;4.748;2022-08-23T11:17:01;14.40;;;4.53;;
30233;SDS011;17046;52.074;4.748;2022-08-23T11:22:19;8.38;;;2.65;;
30233;SDS011;17046;52.074;4.748;2022-08-23T11:27:36;5.60;;;3.00;;
30233;SDS011;17046;52.074;4.748;2022-08-23T11:32:59;4.38;;;1.50;;
30233;SDS011;17046;52.074;4.748;2022-08-23T11:35:49;4.10;;;1.75;;
30233;SDS011;17046;52.074;4.748;2022-08-23T11:38:17;3.55;;;1.50;;
30233;SDS011;17046;52.074;4.748;2022-08-23T11:41:11;6.53;;;2.60;;
30233;SDS011;17046;52.074;4.748;2022-08-23T11:43:44;5.57;;;1.80;;
30233;SDS011;17046;52.074;4.748;2022-08-23T12:03:34;7.70;;;2.67;;
30233;SDS011;17046;52.074;4.748;2022-08-23T12:14:32;9.05;;;2.72;;
30233;SDS011;17046;52.074;4.748;2022-08-23T12:17:01;7.38;;;2.53;;
30233;SDS011;17046;52.074;4.748;2022-08-23T12:19:47;5.38;;;2.33;;
30233;SDS011;17046;52.074;4.748;2022-08-23T12:22:17;5.97;;;2.78;;
30233;SDS011;17046;52.074;4.748;2022-08-23T12:32:46;3.97;;;2.53;;
30233;SDS011;17046;52.074;4.748;2022-08-23T12:40:49;11.02;;;3.47;;
30233;SDS011;17046;52.074;4.748;2022-08-23T12:45:48;5.72;;;3.15;;
30233;SDS011;17046;52.074;4.748;2022-08-23T12:48:17;5.47;;;3.20;;
30233;SDS011;17046;52.074;4.748;2022-08-23T12:50:53;6.82;;;3.50;;
30233;SDS011;17046;52.074;4.748;2022-08-23T12:55:58;9.68;;;5.78;;
30233;SDS011;17046;52.074;4.748;2022-08-23T12:58:28;10.90;;;6.18;;
30233;SDS011;17046;52.074;4.748;2022-08-23T13:00:57;11.40;;;5.75;;
30233;SDS011;17046;52.074;4.748;2022-08-23T13:03:29;7.85;;;3.70;;
30233;SDS011;17046;52.074;4.748;2022-08-23T13:06:01;8.38;;;3.97;;
30233;SDS011;17046;52.074;4.748;2022-08-23T13:08:38;8.57;;;3.80;;
30233;SDS011;17046;52.074;4.748;2022-08-23T13:11:11;7.03;;;3.38;;
30233;SDS011;17046;52.074;4.748;2022-08-23T13:13:39;6.47;;;3.83;;
30233;SDS011;17046;52.074;4.748;2022-08-23T13:18:48;9.80;;;4.55;;
30233;SDS011;17046;52.074;4.748;2022-08-23T13:21:15;8.43;;;5.25;;
30233;SDS011;17046;52.074;4.748;2022-08-23T13:23:47;7.93;;;4.13;;
30233;SDS011;17046;52.074;4.748;2022-08-23T13:29:02;7.55;;;4.30;;
30233;SDS011;17046;52.074;4.748;2022-08-23T13:32:22;9.27;;;3.90;;
30233;SDS011;17046;52.074;4.748;2022-08-23T13:34:34;6.53;;;2.90;;
30233;SDS011;17046;52.074;4.748;2022-08-23T13:37:18;6.82;;;2.60;;
30233;SDS011;17046;52.074;4.748;2022-08-23T13:40:03;8.45;;;3.47;;
30233;SDS011;17046;52.074;4.748;2022-08-23T13:42:55;8.23;;;3.05;;
30233;SDS011;17046;52.074;4.748;2022-08-23T13:45:25;7.45;;;2.80;;
30233;SDS011;17046;52.074;4.748;2022-08-23T13:47:58;6.72;;;2.60;;
30233;SDS011;17046;52.074;4.748;2022-08-23T13:50:31;7.75;;;3.70;;
30233;SDS011;17046;52.074;4.748;2022-08-23T13:52:58;7.38;;;4.20;;
30233;SDS011;17046;52.074;4.748;2022-08-23T13:55:26;9.18;;;5.68;;
30233;SDS011;17046;52.074;4.748;2022-08-23T13:57:53;9.88;;;4.85;;
30233;SDS011;17046;52.074;4.748;2022-08-23T14:00:20;11.27;;;5.60;;
30233;SDS011;17046;52.074;4.748;2022-08-23T14:02:46;7.10;;;4.55;;
30233;SDS011;17046;52.074;4.748;2022-08-23T14:05:14;10.68;;;4.43;;
30233;SDS011;17046;52.074;4.748;2022-08-23T14:07:43;8.23;;;4.15;;
30233;SDS011;17046;52.074;4.748;2022-08-23T14:10:11;9.60;;;4.68;;
30233;SDS011;17046;52.074;4.748;2022-08-23T14:12:38;8.13;;;4.10;;
30233;SDS011;17046;52.074;4.748;2022-08-23T14:15:05;8.13;;;4.15;;
30233;SDS011;17046;52.074;4.748;2022-08-23T14:17:36;8.27;;;4.32;;
30233;SDS011;17046;52.074;4.748;2022-08-23T14:20:06;9.02;;;4.75;;
30233;SDS011;17046;52.074;4.748;2022-08-23T14:22:33;8.75;;;4.40;;
30233;SDS011;17046;52.074;4.748;2022-08-23T14:24:58;11.68;;;4.18;;
30233;SDS011;17046;52.074;4.748;2022-08-23T14:27:24;13.50;;;4.57;;
30233;SDS011;17046;52.074;4.748;2022-08-23T14:29:50;10.50;;;4.65;;
30233;SDS011;17046;52.074;4.748;2022-08-23T14:32:15;9.40;;;4.53;;
30233;SDS011;17046;52.074;4.748;2022-08-23T14:34:41;10.38;;;4.45;;
30233;SDS011;17046;52.074;4.748;2022-08-23T14:37:06;10.73;;;4.93;;
30233;SDS011;17046;52.074;4.748;2022-08-23T14:39:32;7.88;;;4.50;;
30233;SDS011;17046;52.074;4.748;2022-08-23T14:41:57;9.75;;;6.13;;
30233;SDS011;17046;52.074;4.748;2022-08-23T14:44:23;13.02;;;6.95;;
30233;SDS011;17046;52.074;4.748;2022-08-23T14:46:49;13.10;;;5.85;;
30233;SDS011;17046;52.074;4.748;2022-08-23T14:49:15;10.00;;;4.60;;
30233;SDS011;17046;52.074;4.748;2022-08-23T14:51:42;9.50;;;4.30;;
30233;SDS011;17046;52.074;4.748;2022-08-23T14:54:14;8.95;;;4.07;;
30233;SDS011;17046;52.074;4.748;2022-08-23T14:56:43;9.77;;;4.60;;
30233;SDS011;17046;52.074;4.748;2022-08-23T14:59:09;12.23;;;5.53;;
30233;SDS011;17046;52.074;4.748;2022-08-23T15:01:35;9.52;;;5.07;;
30233;SDS011;17046;52.074;4.748;2022-08-23T15:04:01;7.55;;;4.15;;
30233;SDS011;17046;52.074;4.748;2022-08-23T15:06:27;8.00;;;4.60;;
30233;SDS011;17046;52.074;4.748;2022-08-23T15:08:53;7.90;;;3.92;;
30233;SDS011;17046;52.074;4.748;2022-08-23T15:11:19;7.43;;;4.25;;
30233;SDS011;17046;52.074;4.748;2022-08-23T15:13:45;7.80;;;4.22;;
30233;SDS011;17046;52.074;4.748;2022-08-23T15:16:11;7.80;;;4.20;;
30233;SDS011;17046;52.074;4.748;2022-08-23T15:18:39;8.27;;;3.50;;
30233;SDS011;17046;52.074;4.748;2022-08-23T15:21:12;10.57;;;5.72;;
30233;SDS011;17046;52.074;4.748;2022-08-23T15:23:39;9.70;;;5.57;;
30233;SDS011;17046;52.074;4.748;2022-08-23T15:26:05;11.45;;;5.97;;
30233;SDS011;17046;52.074;4.748;2022-08-23T15:28:31;9.15;;;5.68;;
30233;SDS011;17046;52.074;4.748;2022-08-23T15:30:57;10.65;;;6.07;;
30233;SDS011;17046;52.074;4.748;2022-08-23T15:33:24;9.27;;;6.80;;
30233;SDS011;17046;52.074;4.748;2022-08-23T15:35:50;9.55;;;6.63;;
30233;SDS011;17046;52.074;4.748;2022-08-23T15:38:16;8.70;;;6.15;;
30233;SDS011;17046;52.074;4.748;2022-08-23T15:40:44;10.98;;;7.03;;
30233;SDS011;17046;52.074;4.748;2022-08-23T15:43:10;7.88;;;6.35;;
30233;SDS011;17046;52.074;4.748;2022-08-23T15:45:36;10.35;;;6.32;;
30233;SDS011;17046;52.074;4.748;2022-08-23T15:48:05;10.32;;;6.50;;
30233;SDS011;17046;52.074;4.748;2022-08-23T15:50:40;10.75;;;6.63;;
30233;SDS011;17046;52.074;4.748;2022-08-23T15:53:09;10.30;;;7.22;;
30233;SDS011;17046;52.074;4.748;2022-08-23T15:55:35;9.43;;;6.00;;
30233;SDS011;17046;52.074;4.748;2022-08-23T15:58:02;7.70;;;6.00;;
30233;SDS011;17046;52.074;4.748;2022-08-23T16:00:28;8.65;;;5.65;;
30233;SDS011;17046;52.074;4.748;2022-08-23T16:02:54;6.72;;;5.28;;
30233;SDS011;17046;52.074;4.748;2022-08-23T16:05:20;10.85;;;5.63;;
30233;SDS011;17046;52.074;4.748;2022-08-23T16:07:45;10.60;;;5.57;;
30233;SDS011;17046;52.074;4.748;2022-08-23T16:10:12;7.15;;;5.22;;
30233;SDS011;17046;52.074;4.748;2022-08-23T16:12:39;6.63;;;5.07;;
30233;SDS011;17046;52.074;4.748;2022-08-23T16:15:05;10.40;;;5.60;;
30233;SDS011;17046;52.074;4.748;2022-08-23T16:17:32;9.27;;;5.38;;
30233;SDS011;17046;52.074;4.748;2022-08-23T16:19:59;10.63;;;5.88;;
30233;SDS011;17046;52.074;4.748;2022-08-23T16:22:25;7.68;;;4.80;;
30233;SDS011;17046;52.074;4.748;2022-08-23T16:24:51;9.43;;;5.50;;